Time;durP1;ratioP1;P1;durP2;ratioP2;P2;SDS_P1;SDS_P2;PMS_P1;PMS_P2;Temp;Humidity;BMP_temperature;BMP_pressure;BME280_temperature;BME280_humidity;BME280_pressure;Samples;Min_cycle;Max_cycle;Signal;HPM_P1;HPM_P2
2021/01/18 00:02:32;;;;;;;3.17;1.90;;;20.30;41.50;;;;;;6251588;28;20397;-59
2021/01/18 00:05:33;;;;;;;2.63;1.92;;;20.30;41.20;;;;;;6268315;28;20033;-57
2021/01/18 00:08:33;;;;;;;2.55;1.80;;;20.30;41.30;;;;;;6252244;28;20021;-57
2021/01/18 00:11:34;;;;;;;2.45;1.75;;;20.30;41.40;;;;;;6243535;28;20030;-58
2021/01/18 00:14:35;;;;;;;2.78;1.90;;;20.30;41.30;;;;;;6266884;28;20118;-57
2021/01/18 00:17:35;;;;;;;2.65;1.90;;;20.20;41.90;;;;;;6261526;28;20175;-59
2021/01/18 00:20:36;;;;;;;3.15;2.00;;;20.20;41.30;;;;;;6241888;28;20390;-58
2021/01/18 00:23:40;;;;;;;2.63;1.95;;;20.20;41.30;;;;;;6257654;28;20374;-57
2021/01/18 00:26:45;;;;;;;2.67;1.80;;;20.20;41.40;;;;;;6267143;28;20017;-58
2021/01/18 00:29:47;;;;;;;4.35;2.47;;;20.20;41.20;;;;;;6267874;28;20036;-59
2021/01/18 00:32:48;;;;;;;3.13;2.15;;;20.20;41.40;;;;;;6267980;28;20052;-58
2021/01/18 00:35:48;;;;;;;5.13;2.20;;;20.20;41.30;;;;;;6268014;28;20029;-59
2021/01/18 00:38:49;;;;;;;3.00;2.03;;;20.20;41.30;;;;;;6254265;28;20106;-57
2021/01/18 00:41:49;;;;;;;2.88;2.08;;;20.20;41.40;;;;;;6243686;28;20104;-58
2021/01/18 00:44:50;;;;;;;3.15;2.20;;;20.20;41.30;;;;;;6259243;28;20021;-58
2021/01/18 00:47:52;;;;;;;2.83;2.00;;;20.20;41.50;;;;;;6242981;28;20148;-57
2021/01/18 00:50:53;;;;;;;3.45;2.10;;;20.20;41.30;;;;;;6242922;28;20051;-58
2021/01/18 00:53:53;;;;;;;2.90;2.00;;;20.20;41.20;;;;;;6242906;28;20479;-59
2021/01/18 00:56:54;;;;;;;2.85;1.90;;;20.10;41.50;;;;;;6243087;28;20341;-57
2021/01/18 00:59:54;;;;;;;2.92;1.98;;;20.10;41.30;;;;;;6242828;28;20026;-59
2021/01/18 01:02:57;;;;;;;3.10;2.08;;;20.10;41.40;;;;;;6243075;28;20045;-58
2021/01/18 01:05:57;;;;;;;2.25;1.73;;;20.10;41.30;;;;;;6267924;28;20033;-57
2021/01/18 01:08:58;;;;;;;2.97;1.80;;;20.10;41.40;;;;;;6265399;28;20074;-60
2021/01/18 01:11:58;;;;;;;2.85;2.00;;;20.10;41.50;;;;;;6267697;28;20433;-58
2021/01/18 01:14:59;;;;;;;2.92;2.20;;;20.10;41.30;;;;;;6251541;28;20069;-59
2021/01/18 01:18:00;;;;;;;2.38;1.80;;;20.10;41.20;;;;;;6242968;28;20026;-59
2021/01/18 01:21:00;;;;;;;3.50;2.17;;;20.10;41.40;;;;;;6265907;28;20033;-59
2021/01/18 01:24:01;;;;;;;3.67;2.28;;;20.10;41.30;;;;;;6260715;28;20120;-58
2021/01/18 01:27:02;;;;;;;2.92;2.05;;;20.10;41.40;;;;;;6264567;28;20021;-58
2021/01/18 01:30:04;;;;;;;3.97;2.33;;;20.10;41.20;;;;;;6271586;28;20060;-58
2021/01/18 01:33:05;;;;;;;3.28;1.92;;;20.10;41.20;;;;;;6271855;28;20079;-59
2021/01/18 01:36:06;;;;;;;2.70;1.95;;;20.10;41.50;;;;;;6249340;28;20064;-58
2021/01/18 01:39:07;;;;;;;3.78;2.42;;;20.10;41.20;;;;;;6250694;28;20036;-55
2021/01/18 01:42:22;;;;;;;2.50;1.90;;;20.10;41.40;;;;;;6271539;28;20028;-59
2021/01/18 01:45:22;;;;;;;2.90;2.13;;;20.10;41.40;;;;;;6257166;28;20029;-57
2021/01/18 01:48:24;;;;;;;2.40;1.90;;;20.10;41.30;;;;;;6246519;28;20083;-57
2021/01/18 01:51:27;;;;;;;2.70;2.05;;;20.00;41.50;;;;;;6268945;28;20124;-60
2021/01/18 01:54:28;;;;;;;2.45;1.90;;;20.00;41.30;;;;;;6271091;28;20457;-57
2021/01/18 01:57:30;;;;;;;2.45;2.00;;;20.00;41.20;;;;;;6271524;28;20087;-59
2021/01/18 02:00:37;;;;;;;2.95;2.20;;;20.00;41.30;;;;;;6270991;28;20481;-58
2021/01/18 02:03:43;;;;;;;3.35;2.40;;;20.00;41.40;;;;;;6270994;28;20490;-58
2021/01/18 02:06:43;;;;;;;;;;;20.00;41.20;;;;;;6247863;28;20398;-58
2021/01/18 02:09:43;;;;;;;3.90;2.33;;;20.00;41.40;;;;;;6250464;28;19912;-57
2021/01/18 02:12:44;;;;;;;2.65;1.92;;;20.00;41.20;;;;;;6271055;28;20017;-59
2021/01/18 02:16:06;;;;;;;3.42;2.22;;;20.00;41.40;;;;;;6257402;28;20056;-58
2021/01/18 02:19:22;;;;;;;3.10;2.15;;;20.00;41.30;;;;;;6245848;28;20049;-57
2021/01/18 02:22:44;;;;;;;2.75;1.88;;;20.00;41.30;;;;;;6244694;28;20033;-57
2021/01/18 02:25:50;;;;;;;3.80;2.33;;;20.00;41.40;;;;;;6245877;28;20037;-58
2021/01/18 02:29:16;;;;;;;2.63;2.05;;;20.00;41.30;;;;;;6245889;28;20068;-58
2021/01/18 02:32:43;;;;;;;3.53;2.22;;;19.90;41.40;;;;;;6269535;28;20131;-57
2021/01/18 02:36:21;;;;;;;3.28;2.00;;;20.00;41.50;;;;;;6270301;28;20430;-57
2021/01/18 02:39:54;;;;;;;3.72;2.20;;;19.90;41.30;;;;;;6269549;28;20517;-57
2021/01/18 02:43:03;;;;;;;2.67;2.00;;;19.90;41.40;;;;;;6268597;28;20029;-57
2021/01/18 02:46:05;;;;;;;2.92;2.00;;;19.90;41.10;;;;;;6257971;28;20037;-59
2021/01/18 02:49:06;;;;;;;3.10;2.20;;;20.00;41.30;;;;;;6245338;28;20021;-58
2021/01/18 02:52:12;;;;;;;3.67;2.40;;;20.00;41.20;;;;;;6245089;28;20083;-58
2021/01/18 02:55:16;;;;;;;3.00;2.50;;;19.90;41.30;;;;;;6246646;28;20049;-57
2021/01/18 02:58:22;;;;;;;4.23;2.10;;;19.90;41.30;;;;;;6270008;28;20024;-57
2021/01/18 03:01:44;;;;;;;3.92;2.50;;;19.90;41.40;;;;;;6269876;28;20108;-59
2021/01/18 03:05:02;;;;;;;3.05;2.38;;;19.90;41.30;;;;;;6267967;28;20044;-59
2021/01/18 03:08:23;;;;;;;3.88;2.03;;;19.90;41.50;;;;;;6265951;28;20501;-56
2021/01/18 03:11:38;;;;;;;2.88;2.10;;;19.90;41.40;;;;;;6253245;28;20504;-56
2021/01/18 03:14:45;;;;;;;3.37;2.43;;;19.90;41.30;;;;;;6269632;28;20087;-59
2021/01/18 03:17:47;;;;;;;3.42;2.10;;;19.90;41.30;;;;;;6269348;28;20063;-59
2021/01/18 03:20:48;;;;;;;3.17;2.25;;;19.90;41.30;;;;;;6268677;28;20112;-59
2021/01/18 03:23:48;;;;;;;3.78;2.33;;;19.90;41.40;;;;;;6268216;28;20028;-58
2021/01/18 03:26:50;;;;;;;2.80;2.08;;;19.90;41.40;;;;;;6269290;28;20025;-58
2021/01/18 03:29:50;;;;;;;3.20;2.30;;;19.80;41.40;;;;;;6248071;28;20025;-58
2021/01/18 03:32:55;;;;;;;3.67;2.42;;;19.80;41.40;;;;;;6261799;28;20485;-59
2021/01/18 03:35:56;;;;;;;;;;;19.90;41.50;;;;;;6267788;28;20075;-58
2021/01/18 03:38:56;;;;;;;3.10;2.28;;;19.80;41.50;;;;;;6267255;28;19909;-54
2021/01/18 03:41:57;;;;;;;3.75;2.28;;;19.80;41.30;;;;;;6268463;28;20037;-60
2021/01/18 03:44:57;;;;;;;3.95;2.55;;;19.80;41.30;;;;;;6268442;28;20029;-59
2021/01/18 03:47:58;;;;;;;2.83;2.15;;;19.80;41.30;;;;;;6268211;28;20044;-57
2021/01/18 03:50:58;;;;;;;4.65;2.50;;;19.80;41.30;;;;;;6261783;28;20115;-59
2021/01/18 03:53:59;;;;;;;4.15;2.65;;;19.80;41.40;;;;;;6267925;28;20036;-59
2021/01/18 03:56:59;;;;;;;3.55;2.40;;;19.80;41.40;;;;;;6268380;28;20040;-58
2021/01/18 04:00:00;;;;;;;3.58;2.67;;;19.90;41.50;;;;;;6268382;28;20025;-57
2021/01/18 04:03:01;;;;;;;4.25;2.28;;;19.80;41.30;;;;;;6254302;28;20143;-58
2021/01/18 04:06:01;;;;;;;4.28;2.53;;;19.80;41.30;;;;;;6244173;28;20052;-58
2021/01/18 04:09:03;;;;;;;4.13;2.45;;;19.80;41.30;;;;;;6255324;28;20041;-57
2021/01/18 04:12:05;;;;;;;3.33;2.05;;;19.80;41.20;;;;;;6243536;28;20105;-59
2021/01/18 04:15:08;;;;;;;3.85;2.65;;;19.80;41.30;;;;;;6264424;28;20449;-58
2021/01/18 04:18:09;;;;;;;3.13;2.50;;;19.80;41.20;;;;;;6253077;28;20056;-57
2021/01/18 04:21:09;;;;;;;3.65;2.60;;;19.80;41.30;;;;;;6256298;28;20025;-58
2021/01/18 04:24:11;;;;;;;3.97;2.42;;;19.80;41.20;;;;;;6246846;28;20022;-57
2021/01/18 04:27:12;;;;;;;3.30;2.58;;;19.80;41.40;;;;;;6242435;28;20128;-58
2021/01/18 04:30:13;;;;;;;4.38;2.38;;;19.80;41.30;;;;;;6241851;28;20046;-55
2021/01/18 04:33:14;;;;;;;4.72;2.58;;;19.80;41.60;;;;;;6242338;28;20147;-59
2021/01/18 04:36:14;;;;;;;3.53;2.33;;;19.70;41.30;;;;;;6242082;28;20112;-58
2021/01/18 04:39:15;;;;;;;3.13;2.25;;;19.80;41.40;;;;;;6263127;28;20470;-59
2021/01/18 04:42:16;;;;;;;3.28;2.40;;;19.70;41.50;;;;;;6267086;28;20033;-57
2021/01/18 04:45:18;;;;;;;2.97;2.25;;;19.70;41.30;;;;;;6266757;28;20504;-59
2021/01/18 04:48:19;;;;;;;3.28;2.45;;;19.80;41.40;;;;;;6255702;28;20072;-57
2021/01/18 04:51:23;;;;;;;3.80;2.75;;;19.70;41.30;;;;;;6243161;28;20026;-59
2021/01/18 04:54:25;;;;;;;3.58;2.35;;;19.70;41.40;;;;;;6262134;28;20053;-57
2021/01/18 04:57:31;;;;;;;3.63;2.53;;;19.70;41.30;;;;;;6264172;28;20033;-59
2021/01/18 05:00:49;;;;;;;3.28;2.38;;;19.70;41.40;;;;;;6241972;28;20021;-57
2021/01/18 05:04:02;;;;;;;3.30;2.45;;;19.70;41.40;;;;;;6245107;28;20041;-59
2021/01/18 05:07:12;;;;;;;3.75;2.70;;;19.70;41.30;;;;;;6246562;28;20022;-57
2021/01/18 05:10:18;;;;;;;4.57;2.58;;;19.80;41.20;;;;;;6247437;28;20122;-57
2021/01/18 05:13:20;;;;;;;4.68;2.80;;;19.80;41.00;;;;;;6247483;28;20355;-56
2021/01/18 05:16:22;;;;;;;3.92;2.67;;;19.90;41.30;;;;;;6268504;28;20033;-56
2021/01/18 05:19:24;;;;;;;3.67;2.50;;;19.90;41.10;;;;;;6271631;28;20056;-58
2021/01/18 05:22:25;;;;;;;3.33;2.65;;;19.90;41.20;;;;;;6271878;28;20469;-58
2021/01/18 05:25:26;;;;;;;3.42;2.45;;;19.90;41.30;;;;;;6250514;28;20044;-59
2021/01/18 05:28:26;;;;;;;2.92;2.30;;;19.90;41.30;;;;;;6251311;28;20048;-59
2021/01/18 05:31:30;;;;;;;3.22;2.42;;;19.90;41.30;;;;;;6272097;28;20131;-60
2021/01/18 05:34:31;;;;;;;4.07;2.67;;;19.90;41.30;;;;;;6260108;28;20128;-57
2021/01/18 05:37:32;;;;;;;3.75;2.63;;;19.90;41.30;;;;;;6247386;28;20029;-59
2021/01/18 05:40:46;;;;;;;2.83;2.25;;;20.00;41.40;;;;;;6265516;28;20032;-59
2021/01/18 05:43:47;;;;;;;3.28;2.38;;;20.00;41.50;;;;;;6265348;28;20026;-58
2021/01/18 05:46:48;;;;;;;3.30;2.65;;;20.00;41.50;;;;;;6245757;28;20029;-59
2021/01/18 05:49:50;;;;;;;3.50;2.40;;;20.00;41.50;;;;;;6259283;28;20378;-57
2021/01/18 05:52:51;;;;;;;3.95;2.60;;;20.00;41.60;;;;;;6270086;28;20394;-58
2021/01/18 05:55:52;;;;;;;3.95;2.75;;;20.00;41.60;;;;;;6271393;28;20390;-57
2021/01/18 05:58:54;;;;;;;3.20;2.38;;;20.00;41.60;;;;;;6270147;28;20062;-59
2021/01/18 06:01:55;;;;;;;3.88;2.50;;;20.00;41.70;;;;;;6271976;28;20025;-57
2021/01/18 06:04:56;;;;;;;3.83;2.65;;;20.00;41.60;;;;;;6270729;28;20041;-59
2021/01/18 06:08:17;;;;;;;4.13;2.80;;;20.00;42.10;;;;;;6269590;28;20088;-59
2021/01/18 06:11:25;;;;;;;4.15;2.70;;;20.10;41.50;;;;;;6246102;28;20033;-57
2021/01/18 06:14:25;;;;;;;3.72;2.53;;;20.20;41.20;;;;;;6249572;28;20035;-58
2021/01/18 06:17:26;;;;;;;2.78;2.20;;;20.30;41.60;;;;;;6270784;28;20509;-58
2021/01/18 06:20:28;;;;;;;4.10;2.55;;;20.40;41.90;;;;;;6259237;28;20029;-58
2021/01/18 06:23:29;;;;;;;3.88;2.33;;;20.50;41.70;;;;;;6245978;28;20029;-56
2021/01/18 06:26:36;;;;;;;3.00;2.25;;;20.50;41.40;;;;;;6264407;28;20102;-58
2021/01/18 06:29:40;;;;;;;4.15;2.60;;;20.60;41.50;;;;;;6265638;28;20067;-59
2021/01/18 06:32:40;;;;;;;3.28;2.28;;;20.70;41.50;;;;;;6246094;28;20478;-59
2021/01/18 06:35:41;;;;;;;3.28;2.30;;;20.70;41.30;;;;;;6245523;28;20091;-57
2021/01/18 06:38:44;;;;;;;3.80;2.60;;;20.80;41.40;;;;;;6244593;28;20021;-57
2021/01/18 06:42:03;;;;;;;5.57;2.70;;;20.80;41.40;;;;;;6265118;28;20021;-58
2021/01/18 06:45:18;;;;;;;3.72;2.50;;;20.80;41.30;;;;;;6264288;28;20025;-59
2021/01/18 06:48:19;;;;;;;3.22;2.20;;;20.90;41.20;;;;;;6246362;28;20057;-57
2021/01/18 06:51:22;;;;;;;4.07;2.58;;;21.00;41.30;;;;;;6245922;28;20026;-58
2021/01/18 06:54:29;;;;;;;3.58;2.42;;;21.00;41.20;;;;;;6244481;28;20025;-57
2021/01/18 06:58:07;;;;;;;3.33;2.33;;;21.00;41.30;;;;;;6269181;28;20028;-58
2021/01/18 07:01:13;;;;;;;3.03;2.30;;;21.00;41.20;;;;;;6264320;28;20033;-57
2021/01/18 07:04:17;;;;;;;3.58;2.50;;;21.00;41.10;;;;;;6272334;28;20049;-55
2021/01/18 07:07:31;;;;;;;4.22;2.55;;;21.10;41.20;;;;;;6251265;28;20026;-59
2021/01/18 07:10:35;;;;;;;3.45;2.50;;;21.10;41.10;;;;;;6247275;28;20421;-55
2021/01/18 07:13:36;;;;;;;4.53;2.88;;;21.10;41.10;;;;;;6247050;28;20482;-59
2021/01/18 07:16:41;;;;;;;3.35;2.58;;;21.20;41.10;;;;;;6260160;28;20024;-56
2021/01/18 07:19:47;;;;;;;4.15;2.42;;;21.20;41.20;;;;;;6247990;28;20568;-59
2021/01/18 07:23:07;;;;;;;4.28;3.30;;;21.20;41.10;;;;;;6247107;28;20029;-54
2021/01/18 07:26:20;;;;;;;13.55;3.83;;;21.10;41.10;;;;;;6239810;28;20034;-61
2021/01/18 07:29:25;;;;;;;23.55;4.15;;;21.20;40.80;;;;;;6244508;28;20413;-58
2021/01/18 07:32:26;;;;;;;;;;;21.30;40.90;;;;;;6245101;28;20033;-55
2021/01/18 07:35:27;;;;;;;18.80;4.03;;;21.30;40.00;;;;;;6245563;28;19912;-66
2021/01/18 07:38:34;;;;;;;12.82;4.00;;;21.40;40.70;;;;;;6257693;28;20021;-51
2021/01/18 07:41:36;;;;;;;66.80;4.32;;;21.60;40.50;;;;;;6236823;28;20021;-61
2021/01/18 07:44:41;;;;;;;41.03;4.15;;;21.70;41.00;;;;;;6244366;28;20031;-53
2021/01/18 07:47:54;;;;;;;21.55;4.18;;;21.60;40.10;;;;;;6243899;28;20025;-55
2021/01/18 07:51:00;;;;;;;24.73;3.67;;;21.60;40.80;;;;;;6235863;28;20090;-57
2021/01/18 07:54:01;;;;;;;18.33;4.07;;;21.60;41.90;;;;;;6244773;28;20033;-52
2021/01/18 07:57:24;;;;;;;23.48;4.00;;;21.70;42.20;;;;;;6244176;28;20116;-58
2021/01/18 08:00:27;;;;;;;25.60;3.80;;;21.70;41.90;;;;;;6241221;28;20320;-56
2021/01/18 08:03:28;;;;;;;16.02;3.72;;;21.60;41.60;;;;;;6243534;28;20056;-55
2021/01/18 08:06:28;;;;;;;11.10;3.50;;;21.60;41.30;;;;;;6245956;28;20013;-57
2021/01/18 08:09:29;;;;;;;15.23;3.58;;;21.60;41.40;;;;;;6244314;28;20041;-60
2021/01/18 08:12:37;;;;;;;6.95;3.13;;;21.60;41.70;;;;;;6244775;28;20025;-56
2021/01/18 08:15:38;;;;;;;7.93;3.50;;;21.60;41.70;;;;;;6246066;28;20022;-57
2021/01/18 08:19:01;;;;;;;10.07;3.50;;;21.60;41.50;;;;;;6244170;28;20033;-57
2021/01/18 08:22:05;;;;;;;6.65;3.47;;;21.60;41.60;;;;;;6243272;28;20033;-54
2021/01/18 08:25:07;;;;;;;6.43;3.65;;;21.60;41.70;;;;;;6241694;28;20034;-54
2021/01/18 08:28:24;;;;;;;5.47;3.55;;;21.60;41.60;;;;;;6244847;28;20052;-54
2021/01/18 08:31:24;;;;;;;5.82;3.40;;;21.60;41.30;;;;;;6267588;28;20021;-58
2021/01/18 08:34:34;;;;;;;5.20;3.58;;;21.60;41.40;;;;;;6244861;28;20037;-55
2021/01/18 08:37:36;;;;;;;5.55;3.38;;;21.60;41.30;;;;;;6254086;28;20512;-56
2021/01/18 08:40:44;;;;;;;5.55;3.47;;;21.60;41.10;;;;;;6273800;28;20025;-56
2021/01/18 08:43:49;;;;;;;5.03;3.10;;;21.60;41.20;;;;;;6273734;28;20082;-57
2021/01/18 08:46:50;;;;;;;;;;;21.60;41.00;;;;;;6273556;28;20052;-58
2021/01/18 08:50:19;;;;;;;4.93;3.53;;;21.60;40.90;;;;;;6249221;28;19913;-52
2021/01/18 08:53:29;;;;;;;6.47;3.72;;;21.60;41.00;;;;;;6248191;28;20032;-58
2021/01/18 08:56:32;;;;;;;6.07;3.53;;;21.60;41.10;;;;;;6248517;28;20323;-56
2021/01/18 08:59:33;;;;;;;6.30;3.58;;;21.60;41.10;;;;;;6248535;28;20021;-58
2021/01/18 09:02:34;;;;;;;4.72;3.22;;;21.60;41.10;;;;;;6251285;28;20049;-52
2021/01/18 09:05:35;;;;;;;4.95;3.22;;;21.60;41.20;;;;;;6272927;28;20052;-59
2021/01/18 09:08:39;;;;;;;5.78;3.33;;;21.60;41.00;;;;;;6271538;28;20104;-56
2021/01/18 09:11:40;;;;;;;6.03;3.55;;;21.60;41.30;;;;;;6252503;28;20068;-58
2021/01/18 09:14:41;;;;;;;4.63;2.95;;;21.60;41.20;;;;;;6249866;28;20026;-53
2021/01/18 09:17:41;;;;;;;5.32;3.45;;;21.60;41.30;;;;;;6248087;28;20040;-58
2021/01/18 09:20:43;;;;;;;9.68;3.95;;;21.50;41.30;;;;;;6250214;28;20025;-51
2021/01/18 09:23:45;;;;;;;6.60;3.75;;;21.50;41.30;;;;;;6248888;28;20037;-58
2021/01/18 09:26:46;;;;;;;5.15;3.45;;;21.50;41.10;;;;;;6247230;28;20417;-57
2021/01/18 09:30:03;;;;;;;6.00;3.50;;;21.50;40.90;;;;;;6247654;28;20030;-57
2021/01/18 09:33:07;;;;;;;5.88;3.38;;;21.50;41.00;;;;;;6247959;28;20025;-57
2021/01/18 09:36:18;;;;;;;6.65;3.45;;;21.50;41.00;;;;;;6247716;28;20036;-56
2021/01/18 09:39:22;;;;;;;5.15;3.70;;;21.50;41.00;;;;;;6258109;28;20059;-58
2021/01/18 09:42:24;;;;;;;5.13;3.33;;;21.50;41.00;;;;;;6248149;28;20025;-61
2021/01/18 09:45:26;;;;;;;13.52;3.55;;;21.50;41.30;;;;;;6249043;28;20021;-65
2021/01/18 09:48:27;;;;;;;7.43;3.22;;;21.50;41.40;;;;;;6247631;28;20159;-59
2021/01/18 09:51:27;;;;;;;7.93;3.33;;;21.50;41.40;;;;;;6247884;28;20421;-58
2021/01/18 09:54:29;;;;;;;4.68;3.10;;;21.50;41.30;;;;;;6247833;28;20094;-57
2021/01/18 09:57:32;;;;;;;6.43;3.83;;;21.50;41.10;;;;;;6247097;28;20033;-58
2021/01/18 10:00:36;;;;;;;6.47;3.22;;;21.50;41.10;;;;;;6248397;28;20057;-51
2021/01/18 10:03:39;;;;;;;5.10;3.50;;;21.50;41.20;;;;;;6249477;28;20091;-57
2021/01/18 10:06:40;;;;;;;4.53;3.08;;;21.50;41.30;;;;;;6272044;28;20052;-55
2021/01/18 10:09:42;;;;;;;6.13;3.90;;;21.50;41.40;;;;;;6261471;28;20018;-57
2021/01/18 10:12:49;;;;;;;6.10;4.40;;;21.30;40.90;;;;;;6247647;28;20021;-56
2021/01/18 10:15:50;;;;;;;12.52;5.53;;;21.30;40.50;;;;;;6249948;28;20025;-56
2021/01/18 10:18:50;;;;;;;8.50;4.60;;;21.30;40.40;;;;;;6251200;28;20056;-56
2021/01/18 10:21:52;;;;;;;12.65;4.43;;;21.40;40.80;;;;;;6270803;28;20044;-58
2021/01/18 10:24:58;;;;;;;6.10;4.32;;;21.40;41.00;;;;;;6251865;28;20083;-59
2021/01/18 10:27:59;;;;;;;4.90;3.80;;;21.40;40.80;;;;;;6245962;28;20025;-58
2021/01/18 10:31:00;;;;;;;7.70;4.57;;;21.40;40.80;;;;;;6263820;28;20506;-57
2021/01/18 10:34:23;;;;;;;5.50;4.10;;;21.30;40.90;;;;;;6248198;28;20029;-57
2021/01/18 10:37:27;;;;;;;6.00;4.25;;;21.30;41.00;;;;;;6245300;28;20030;-56
2021/01/18 10:40:27;;;;;;;5.93;4.03;;;21.30;41.20;;;;;;6245546;28;20049;-57
2021/01/18 10:43:29;;;;;;;5.97;3.30;;;21.30;41.20;;;;;;6245213;28;20048;-54
2021/01/18 10:46:30;;;;;;;5.72;3.90;;;21.30;41.10;;;;;;6264839;28;20060;-55
2021/01/18 10:49:32;;;;;;;6.22;3.72;;;21.20;41.10;;;;;;6269644;28;20041;-59
2021/01/18 10:52:43;;;;;;;5.50;3.78;;;21.20;41.20;;;;;;6249718;28;20037;-57
2021/01/18 10:55:44;;;;;;;6.65;3.78;;;21.20;41.20;;;;;;6256236;28;20029;-60
2021/01/18 10:58:54;;;;;;;5.03;3.55;;;21.20;41.40;;;;;;6269407;28;20027;-58
2021/01/18 11:02:03;;;;;;;5.20;3.65;;;21.20;41.30;;;;;;6248755;28;20037;-60
2021/01/18 11:05:04;;;;;;;6.43;4.38;;;21.20;41.30;;;;;;6250331;28;20051;-58
2021/01/18 11:08:07;;;;;;;5.40;3.58;;;21.20;41.50;;;;;;6269150;28;20024;-59
2021/01/18 11:11:26;;;;;;;4.70;3.35;;;21.20;41.40;;;;;;6262752;28;20021;-57
2021/01/18 11:14:30;;;;;;;7.22;3.50;;;21.20;41.40;;;;;;6271346;28;20397;-56
2021/01/18 11:17:31;;;;;;;5.00;3.37;;;21.20;41.50;;;;;;6246422;28;20065;-58
2021/01/18 11:20:31;;;;;;;5.35;3.80;;;21.20;41.40;;;;;;6244672;28;20035;-61
2021/01/18 11:23:32;;;;;;;8.32;3.28;;;21.20;41.60;;;;;;6244252;28;20087;-58
2021/01/18 11:26:32;;;;;;;4.88;3.25;;;21.20;41.20;;;;;;6258539;28;20499;-60
2021/01/18 11:29:33;;;;;;;4.88;3.30;;;21.20;41.70;;;;;;6267730;28;20033;-59
2021/01/18 11:32:33;;;;;;;7.03;3.47;;;21.20;41.60;;;;;;6268831;28;20025;-59
2021/01/18 11:35:34;;;;;;;7.35;3.33;;;21.20;41.30;;;;;;6262016;28;20567;-55
2021/01/18 11:38:35;;;;;;;8.63;3.50;;;21.20;41.70;;;;;;6268684;28;20021;-54
2021/01/18 11:41:37;;;;;;;9.65;4.05;;;21.20;41.70;;;;;;6255449;28;20199;-54
2021/01/18 11:44:37;;;;;;;5.25;3.42;;;21.20;41.60;;;;;;6244092;28;20036;-56
2021/01/18 11:47:39;;;;;;;5.72;3.60;;;21.20;41.60;;;;;;6264025;28;20021;-55
2021/01/18 11:50:40;;;;;;;4.47;3.20;;;21.20;41.60;;;;;;6260318;28;20478;-52
2021/01/18 11:53:40;;;;;;;4.72;3.05;;;21.10;41.60;;;;;;6244116;28;20084;-55
2021/01/18 11:56:41;;;;;;;4.75;3.50;;;21.10;41.60;;;;;;6255234;28;20036;-55
2021/01/18 11:59:41;;;;;;;4.28;3.13;;;21.10;41.10;;;;;;6268689;28;20386;-59
2021/01/18 12:02:42;;;;;;;110.35;10.43;;;21.00;41.10;;;;;;6262113;28;20041;-52
2021/01/18 12:05:42;;;;;;;107.00;8.60;;;21.00;39.90;;;;;;6243600;28;20038;-58
2021/01/18 12:08:43;;;;;;;51.55;8.20;;;21.00;41.00;;;;;;6249114;28;20526;-61
2021/01/18 12:11:44;;;;;;;63.80;9.38;;;21.10;41.30;;;;;;6241935;28;20029;-61
2021/01/18 12:14:45;;;;;;;48.42;7.45;;;21.10;40.80;;;;;;6248444;28;20075;-60
2021/01/18 12:17:46;;;;;;;20.98;5.95;;;21.20;41.40;;;;;;6249564;28;20115;-56
2021/01/18 12:20:46;;;;;;;27.90;5.63;;;21.20;41.30;;;;;;6242880;28;20537;-58
2021/01/18 12:23:48;;;;;;;22.63;5.78;;;21.20;41.20;;;;;;6243730;28;20056;-61
2021/01/18 12:26:53;;;;;;;36.55;5.28;;;21.30;41.30;;;;;;6256362;28;20282;-57
2021/01/18 12:29:53;;;;;;;25.65;5.07;;;21.30;41.30;;;;;;6243460;28;20025;-57
2021/01/18 12:32:54;;;;;;;30.75;4.95;;;21.40;41.10;;;;;;6256656;28;20044;-57
2021/01/18 12:35:54;;;;;;;20.27;4.97;;;21.60;40.60;;;;;;6243408;28;20120;-58
2021/01/18 12:38:55;;;;;;;24.38;5.22;;;21.70;40.80;;;;;;6251309;28;20037;-57
2021/01/18 12:41:55;;;;;;;20.10;5.38;;;21.70;40.70;;;;;;6246361;28;20059;-55
2021/01/18 12:44:56;;;;;;;17.23;4.63;;;21.60;40.90;;;;;;6251098;28;20065;-57
2021/01/18 12:47:57;;;;;;;20.55;7.95;;;21.40;41.00;;;;;;6255053;28;20030;-57
2021/01/18 12:50:58;;;;;;;21.20;6.97;;;21.30;40.10;;;;;;6242007;28;20425;-48
2021/01/18 12:53:58;;;;;;;21.45;6.97;;;21.20;40.70;;;;;;6242853;28;20026;-49
2021/01/18 12:56:59;;;;;;;10.20;5.53;;;21.10;40.80;;;;;;6247027;28;20017;-48
2021/01/18 12:59:59;;;;;;;12.95;5.28;;;21.10;41.10;;;;;;6252934;28;20053;-49
2021/01/18 13:03:00;;;;;;;19.17;7.00;;;21.20;41.20;;;;;;6255750;28;20044;-52
2021/01/18 13:06:00;;;;;;;11.00;4.95;;;21.20;41.20;;;;;;6245432;28;20028;-50
2021/01/18 13:09:01;;;;;;;13.20;4.85;;;21.30;41.20;;;;;;6246943;28;20425;-49
2021/01/18 13:12:02;;;;;;;9.85;5.60;;;21.30;42.00;;;;;;6243569;28;20104;-47
2021/01/18 13:15:03;;;;;;;9.20;4.88;;;21.30;41.40;;;;;;6255216;28;20389;-47
2021/01/18 13:18:03;;;;;;;8.20;4.85;;;21.30;41.20;;;;;;6258954;28;20486;-52
2021/01/18 13:21:04;;;;;;;13.70;4.15;;;21.30;41.30;;;;;;6243640;28;20041;-49
2021/01/18 13:24:06;;;;;;;8.50;3.95;;;21.30;41.60;;;;;;6245744;28;20033;-51
2021/01/18 13:27:06;;;;;;;11.02;4.32;;;21.30;41.60;;;;;;6248520;28;20045;-50
2021/01/18 13:30:07;;;;;;;7.78;4.20;;;21.30;41.60;;;;;;6259135;28;20075;-47
2021/01/18 13:33:08;;;;;;;8.32;4.28;;;21.30;41.60;;;;;;6264903;28;20029;-46
2021/01/18 13:36:24;;;;;;;9.52;4.38;;;21.20;41.70;;;;;;6248218;28;20026;-48
2021/01/18 13:39:25;;;;;;;9.48;3.90;;;21.20;41.70;;;;;;6247613;28;20482;-47
2021/01/18 13:42:25;;;;;;;7.40;4.15;;;21.10;41.80;;;;;;6248186;28;20032;-47
2021/01/18 13:45:26;;;;;;;5.68;3.60;;;21.10;41.80;;;;;;6272508;28;20105;-47
2021/01/18 13:48:26;;;;;;;8.15;4.15;;;21.20;41.90;;;;;;6262885;28;20021;-48
2021/01/18 13:51:27;;;;;;;7.65;4.00;;;21.10;41.70;;;;;;6247142;28;20025;-47
2021/01/18 13:54:28;;;;;;;9.30;4.47;;;21.10;41.70;;;;;;6247620;28;20033;-47
2021/01/18 13:57:28;;;;;;;8.07;4.00;;;21.20;41.90;;;;;;6247549;28;20060;-47
2021/01/18 14:00:29;;;;;;;6.88;3.47;;;21.20;41.80;;;;;;6247295;28;20091;-49
2021/01/18 14:03:29;;;;;;;5.22;3.60;;;21.20;41.80;;;;;;6250831;28;20107;-46
2021/01/18 14:06:36;;;;;;;7.07;3.90;;;21.20;41.70;;;;;;6254237;28;20037;-47
2021/01/18 14:09:37;;;;;;;6.65;3.80;;;21.20;41.80;;;;;;6248262;28;20037;-49
2021/01/18 14:12:37;;;;;;;8.82;3.83;;;21.20;41.90;;;;;;6246338;28;20026;-51
2021/01/18 14:15:38;;;;;;;5.57;3.75;;;21.20;41.80;;;;;;6252614;28;20100;-50
2021/01/18 14:18:38;;;;;;;6.70;4.03;;;21.20;41.70;;;;;;6247615;28;20021;-48
2021/01/18 14:21:39;;;;;;;7.38;4.05;;;21.20;41.80;;;;;;6247810;28;20029;-54
2021/01/18 14:24:39;;;;;;;8.30;3.28;;;21.30;41.70;;;;;;6229370;28;20030;-52
2021/01/18 14:27:44;;;;;;;8.13;3.80;;;21.30;41.70;;;;;;6246942;28;20433;-49
2021/01/18 14:30:45;;;;;;;9.57;4.10;;;21.30;42.60;;;;;;6247951;28;20018;-47
2021/01/18 14:33:47;;;;;;;7.13;3.38;;;21.30;41.70;;;;;;6271006;28;20032;-50
2021/01/18 14:36:48;;;;;;;4.95;3.20;;;21.30;41.70;;;;;;6271776;28;20508;-50
2021/01/18 14:39:49;;;;;;;9.23;5.30;;;21.20;41.70;;;;;;6269162;28;20514;-52
2021/01/18 14:42:50;;;;;;;8.38;3.55;;;21.20;41.40;;;;;;6249075;28;20014;-47
2021/01/18 14:45:50;;;;;;;11.20;4.22;;;21.20;41.60;;;;;;6246328;28;20029;-49
2021/01/18 14:48:51;;;;;;;8.07;3.80;;;21.30;41.70;;;;;;6246232;28;20506;-55
2021/01/18 14:51:52;;;;;;;9.35;4.25;;;21.30;41.40;;;;;;6246133;28;20026;-55
2021/01/18 14:54:53;;;;;;;8.15;3.53;;;21.30;41.80;;;;;;6265199;28;20039;-50
2021/01/18 14:57:57;;;;;;;7.05;4.22;;;21.30;41.90;;;;;;6249527;28;20493;-50
2021/01/18 15:00:58;;;;;;;8.75;3.80;;;21.30;41.90;;;;;;6257908;28;20033;-50
2021/01/18 15:03:59;;;;;;;5.53;3.50;;;21.30;41.50;;;;;;6246583;28;20525;-48
2021/01/18 15:06:59;;;;;;;10.23;3.53;;;21.30;41.70;;;;;;6249620;28;20047;-51
2021/01/18 15:10:00;;;;;;;6.75;3.33;;;21.30;41.90;;;;;;6244571;28;20033;-49
2021/01/18 15:13:02;;;;;;;6.55;3.35;;;21.30;41.80;;;;;;6243821;28;20029;-51
2021/01/18 15:16:06;;;;;;;10.43;3.67;;;21.30;41.70;;;;;;6257654;28;20037;-50
2021/01/18 15:19:07;;;;;;;6.53;3.47;;;21.30;41.70;;;;;;6260179;28;20359;-52
2021/01/18 15:22:08;;;;;;;7.07;4.00;;;21.40;41.80;;;;;;6257347;28;20061;-56
2021/01/18 15:25:09;;;;;;;4.47;3.05;;;21.40;41.80;;;;;;6258487;28;20032;-57
2021/01/18 15:28:11;;;;;;;7.97;3.03;;;21.40;41.70;;;;;;6262097;28;20099;-54
2021/01/18 15:31:11;;;;;;;10.40;3.10;;;21.40;41.80;;;;;;6252144;28;20020;-56
2021/01/18 15:34:12;;;;;;;4.63;2.88;;;21.40;41.80;;;;;;6244006;28;20021;-57
2021/01/18 15:37:13;;;;;;;5.57;3.15;;;21.40;41.80;;;;;;6268281;28;20501;-59
2021/01/18 15:40:14;;;;;;;5.22;3.00;;;21.40;41.90;;;;;;6261203;28;20482;-58
2021/01/18 15:43:15;;;;;;;3.78;2.78;;;21.40;41.90;;;;;;6226730;28;20037;-59
2021/01/18 15:46:16;;;;;;;6.00;2.92;;;21.40;41.90;;;;;;6254630;28;20497;-58
2021/01/18 15:49:17;;;;;;;6.40;2.90;;;21.40;41.90;;;;;;6251978;28;20036;-57
2021/01/18 15:52:17;;;;;;;6.22;3.20;;;21.30;42.10;;;;;;6246696;28;20109;-58
2021/01/18 15:55:18;;;;;;;5.65;3.08;;;21.30;42.10;;;;;;6247963;28;20041;-58